sensor_id;sensor_type;location;lat;lon;timestamp;pressure;altitude;pressure_sealevel;temperature;humidity
7888;BME280;3989;48.810;9.208;2024-02-15T08:04:10;99155.53;;;11.29;100.00
7888;BME280;3989;48.810;9.208;2024-02-15T08:06:37;99188.66;;;11.50;100.00
7888;BME280;3989;48.810;9.208;2024-02-15T08:09:04;99145.84;;;11.28;100.00
7888;BME280;3989;48.810;9.208;2024-02-15T08:11:31;99148.78;;;11.41;100.00
7888;BME280;3989;48.810;9.208;2024-02-15T08:13:58;99187.56;;;11.68;100.00
7888;BME280;3989;48.810;9.208;2024-02-15T08:16:26;99134.94;;;11.37;100.00
7888;BME280;3989;48.810;9.208;2024-02-15T08:18:56;99167.19;;;11.67;100.00
7888;BME280;3989;48.810;9.208;2024-02-15T08:21:28;99113.78;;;11.28;100.00
7888;BME280;3989;48.810;9.208;2024-02-15T08:23:58;99177.53;;;11.70;100.00
7888;BME280;3989;48.810;9.208;2024-02-15T08:26:25;99128.66;;;11.30;100.00
7888;BME280;3989;48.810;9.208;2024-02-15T08:28:52;99142.53;;;11.56;100.00
7888;BME280;3989;48.810;9.208;2024-02-15T08:31:21;99132.00;;;11.55;100.00
7888;BME280;3989;48.810;9.208;2024-02-15T08:33:48;99056.72;;;11.21;100.00
7888;BME280;3989;48.810;9.208;2024-02-15T08:36:15;99076.84;;;11.62;100.00
7888;BME280;3989;48.810;9.208;2024-02-15T08:38:44;98953.41;;;10.90;100.00
7888;BME280;3989;48.810;9.208;2024-02-15T08:41:12;99138.84;;;12.11;100.00
7888;BME280;3989;48.810;9.208;2024-02-15T08:43:39;99142.09;;;12.21;100.00
7888;BME280;3989;48.810;9.208;2024-02-15T08:46:07;99098.06;;;11.86;100.00
7888;BME280;3989;48.810;9.208;2024-02-15T08:48:36;99084.75;;;11.78;100.00
7888;BME280;3989;48.810;9.208;2024-02-15T08:51:06;99074.69;;;11.57;100.00
7888;BME280;3989;48.810;9.208;2024-02-15T08:53:34;99075.72;;;11.56;100.00
7888;BME280;3989;48.810;9.208;2024-02-15T08:56:05;99118.16;;;11.82;100.00
7888;BME280;3989;48.810;9.208;2024-02-15T08:58:38;99119.88;;;11.98;100.00
7888;BME280;3989;48.810;9.208;2024-02-15T09:01:06;99128.50;;;12.08;100.00
7888;BME280;3989;48.810;9.208;2024-02-15T09:03:33;99139.22;;;12.23;100.00
7888;BME280;3989;48.810;9.208;2024-02-15T09:06:01;99145.09;;;12.18;100.00
7888;BME280;3989;48.810;9.208;2024-02-15T09:08:29;99058.03;;;11.47;100.00
7888;BME280;3989;48.810;9.208;2024-02-15T09:10:56;99133.41;;;11.96;100.00
7888;BME280;3989;48.810;9.208;2024-02-15T09:13:26;99065.47;;;11.60;100.00
7888;BME280;3989;48.810;9.208;2024-02-15T09:15:53;99099.69;;;11.95;100.00
7888;BME280;3989;48.810;9.208;2024-02-15T09:18:20;99049.09;;;11.86;100.00
7888;BME280;3989;48.810;9.208;2024-02-15T09:20:48;99107.88;;;12.31;100.00
7888;BME280;3989;48.810;9.208;2024-02-15T09:23:20;99085.25;;;12.19;100.00
7888;BME280;3989;48.810;9.208;2024-02-15T09:25:49;99099.44;;;12.20;100.00
7888;BME280;3989;48.810;9.208;2024-02-15T09:28:17;99035.97;;;11.76;100.00
7888;BME280;3989;48.810;9.208;2024-02-15T09:30:49;98966.38;;;11.47;100.00
7888;BME280;3989;48.810;9.208;2024-02-15T09:33:19;99074.78;;;12.09;100.00
7888;BME280;3989;48.810;9.208;2024-02-15T09:35:47;99088.59;;;12.21;100.00
7888;BME280;3989;48.810;9.208;2024-02-15T09:38:14;99136.53;;;12.60;100.00
7888;BME280;3989;48.810;9.208;2024-02-15T09:40:42;99121.28;;;12.60;100.00
7888;BME280;3989;48.810;9.208;2024-02-15T09:43:10;99093.22;;;12.42;100.00
7888;BME280;3989;48.810;9.208;2024-02-15T09:45:40;99124.25;;;12.66;100.00
7888;BME280;3989;48.810;9.208;2024-02-15T09:48:10;99052.03;;;12.28;100.00
7888;BME280;3989;48.810;9.208;2024-02-15T09:50:39;99119.63;;;12.74;100.00
7888;BME280;3989;48.810;9.208;2024-02-15T09:53:09;99076.81;;;12.59;100.00
7888;BME280;3989;48.810;9.208;2024-02-15T09:55:36;99025.19;;;12.36;100.00
7888;BME280;3989;48.810;9.208;2024-02-15T09:58:07;99043.00;;;12.58;100.00
7888;BME280;3989;48.810;9.208;2024-02-15T10:00:35;99118.25;;;12.93;100.00
7888;BME280;3989;48.810;9.208;2024-02-15T10:03:05;98958.38;;;11.99;100.00
7888;BME280;3989;48.810;9.208;2024-02-15T10:05:35;99006.38;;;12.30;100.00
7888;BME280;3989;48.810;9.208;2024-02-15T10:08:07;98983.28;;;12.29;100.00
7888;BME280;3989;48.810;9.208;2024-02-15T10:10:36;99080.94;;;12.91;100.00
7888;BME280;3989;48.810;9.208;2024-02-15T10:13:03;99036.44;;;12.76;100.00
7888;BME280;3989;48.810;9.208;2024-02-15T10:15:31;99098.78;;;13.13;100.00
7888;BME280;3989;48.810;9.208;2024-02-15T10:18:01;99085.13;;;13.08;100.00
7888;BME280;3989;48.810;9.208;2024-02-15T10:20:29;99023.94;;;12.97;100.00
7888;BME280;3989;48.810;9.208;2024-02-15T10:23:10;98979.78;;;12.93;100.00
7888;BME280;3989;48.810;9.208;2024-02-15T10:25:39;99056.91;;;13.48;100.00
7888;BME280;3989;48.810;9.208;2024-02-15T10:28:07;99083.88;;;13.83;100.00
7888;BME280;3989;48.810;9.208;2024-02-15T10:30:35;99025.47;;;13.63;100.00
7888;BME280;3989;48.810;9.208;2024-02-15T10:33:03;98999.50;;;13.64;100.00
7888;BME280;3989;48.810;9.208;2024-02-15T10:35:31;99052.09;;;14.07;100.00
7888;BME280;3989;48.810;9.208;2024-02-15T10:38:07;99060.03;;;14.22;100.00
7888;BME280;3989;48.810;9.208;2024-02-15T10:40:37;99051.41;;;14.27;100.00
7888;BME280;3989;48.810;9.208;2024-02-15T10:43:06;99058.81;;;14.46;100.00
7888;BME280;3989;48.810;9.208;2024-02-15T10:45:37;99056.63;;;14.62;100.00
7888;BME280;3989;48.810;9.208;2024-02-15T10:48:07;99067.41;;;14.69;100.00
7888;BME280;3989;48.810;9.208;2024-02-15T10:50:34;99052.59;;;14.80;100.00
7888;BME280;3989;48.810;9.208;2024-02-15T10:53:09;99016.94;;;14.58;100.00
7888;BME280;3989;48.810;9.208;2024-02-15T10:55:48;99061.38;;;15.01;100.00
7888;BME280;3989;48.810;9.208;2024-02-15T10:58:20;98898.69;;;14.04;98.47
7888;BME280;3989;48.810;9.208;2024-02-15T11:00:51;99030.78;;;14.96;99.25
7888;BME280;3989;48.810;9.208;2024-02-15T11:03:24;99026.88;;;15.05;93.65
7888;BME280;3989;48.810;9.208;2024-02-15T11:05:52;98938.66;;;14.67;95.48
7888;BME280;3989;48.810;9.208;2024-02-15T11:08:23;99033.13;;;15.32;96.88
7888;BME280;3989;48.810;9.208;2024-02-15T11:10:51;98945.78;;;14.88;90.96
7888;BME280;3989;48.810;9.208;2024-02-15T11:13:20;99017.84;;;15.39;91.28
7888;BME280;3989;48.810;9.208;2024-02-15T11:15:48;98870.03;;;14.58;91.62
7888;BME280;3989;48.810;9.208;2024-02-15T11:18:43;99023.94;;;15.54;87.95
7888;BME280;3989;48.810;9.208;2024-02-15T11:21:15;98960.34;;;15.27;86.93
7888;BME280;3989;48.810;9.208;2024-02-15T11:23:42;98997.03;;;15.73;88.33
7888;BME280;3989;48.810;9.208;2024-02-15T11:26:44;98895.81;;;15.20;88.65
7888;BME280;3989;48.810;9.208;2024-02-15T11:29:49;99002.22;;;15.82;85.91
7888;BME280;3989;48.810;9.208;2024-02-15T11:32:41;98994.56;;;15.85;85.41
7888;BME280;3989;48.810;9.208;2024-02-15T11:35:14;98941.16;;;15.75;85.70
7888;BME280;3989;48.810;9.208;2024-02-15T11:38:06;98993.31;;;15.88;83.94
7888;BME280;3989;48.810;9.208;2024-02-15T11:41:00;98988.94;;;16.13;85.16
7888;BME280;3989;48.810;9.208;2024-02-15T11:43:49;98988.50;;;16.22;85.02
7888;BME280;3989;48.810;9.208;2024-02-15T11:46:20;98971.94;;;16.25;83.79
7888;BME280;3989;48.810;9.208;2024-02-15T11:48:52;98974.22;;;16.22;83.80
7888;BME280;3989;48.810;9.208;2024-02-15T11:51:27;98974.22;;;16.28;84.02
7888;BME280;3989;48.810;9.208;2024-02-15T11:54:03;98976.91;;;16.28;82.75
7888;BME280;3989;48.810;9.208;2024-02-15T11:59:25;98967.97;;;16.48;82.86
7888;BME280;3989;48.810;9.208;2024-02-15T12:02:08;98966.91;;;16.49;82.97
7888;BME280;3989;48.810;9.208;2024-02-15T12:04:52;98947.66;;;16.45;83.07
7888;BME280;3989;48.810;9.208;2024-02-15T12:07:36;98958.97;;;16.80;79.18
7888;BME280;3989;48.810;9.208;2024-02-15T12:10:21;98966.00;;;16.81;81.08
7888;BME280;3989;48.810;9.208;2024-02-15T12:13:05;98945.13;;;16.70;80.23
7888;BME280;3989;48.810;9.208;2024-02-15T12:15:58;98959.38;;;16.70;76.66
7888;BME280;3989;48.810;9.208;2024-02-15T12:18:43;98960.09;;;16.97;78.06
7888;BME280;3989;48.810;9.208;2024-02-15T12:21:17;98935.00;;;16.97;75.37
7888;BME280;3989;48.810;9.208;2024-02-15T12:23:48;98945.22;;;16.88;77.02
7888;BME280;3989;48.810;9.208;2024-02-15T12:26:18;98925.72;;;16.93;75.86
7888;BME280;3989;48.810;9.208;2024-02-15T12:28:50;98941.31;;;17.22;74.33
7888;BME280;3989;48.810;9.208;2024-02-15T12:31:18;98928.72;;;17.41;72.17
7888;BME280;3989;48.810;9.208;2024-02-15T12:33:45;98941.06;;;17.55;72.65
7888;BME280;3989;48.810;9.208;2024-02-15T12:36:12;98929.75;;;17.40;71.59
7888;BME280;3989;48.810;9.208;2024-02-15T12:38:39;98917.88;;;17.47;72.25
7888;BME280;3989;48.810;9.208;2024-02-15T12:41:20;98926.44;;;17.06;74.34
7888;BME280;3989;48.810;9.208;2024-02-15T12:43:47;98920.41;;;17.42;73.72
7888;BME280;3989;48.810;9.208;2024-02-15T12:46:20;98846.97;;;17.15;71.92
7888;BME280;3989;48.810;9.208;2024-02-15T12:48:47;98904.59;;;17.77;69.42
7888;BME280;3989;48.810;9.208;2024-02-15T12:51:15;98904.41;;;17.72;64.75
7888;BME280;3989;48.810;9.208;2024-02-15T12:53:42;98876.06;;;17.63;67.62
7888;BME280;3989;48.810;9.208;2024-02-15T12:56:09;98893.34;;;17.80;68.30
7888;BME280;3989;48.810;9.208;2024-02-15T12:58:36;98895.69;;;17.95;66.10
7888;BME280;3989;48.810;9.208;2024-02-15T13:01:04;98886.00;;;17.87;66.47
7888;BME280;3989;48.810;9.208;2024-02-15T13:03:32;98840.91;;;17.45;67.28
7888;BME280;3989;48.810;9.208;2024-02-15T13:05:59;98875.28;;;17.56;68.24
7888;BME280;3989;48.810;9.208;2024-02-15T13:08:26;98880.69;;;17.56;68.64
7888;BME280;3989;48.810;9.208;2024-02-15T13:10:53;98873.69;;;17.73;67.42
7888;BME280;3989;48.810;9.208;2024-02-15T13:13:21;98871.13;;;17.78;66.23
7888;BME280;3989;48.810;9.208;2024-02-15T13:15:48;98851.47;;;17.71;65.64
7888;BME280;3989;48.810;9.208;2024-02-15T13:18:17;98861.69;;;17.69;66.00
7888;BME280;3989;48.810;9.208;2024-02-15T13:20:45;98862.38;;;17.58;67.36
7888;BME280;3989;48.810;9.208;2024-02-15T13:23:15;98848.72;;;17.77;65.74
7888;BME280;3989;48.810;9.208;2024-02-15T13:46:32;98788.28;;;17.97;60.85
7888;BME280;3989;48.810;9.208;2024-02-15T13:52:36;98845.06;;;18.08;59.67
7888;BME280;3989;48.810;9.208;2024-02-15T13:58:54;98834.88;;;18.28;58.63
7888;BME280;3989;48.810;9.208;2024-02-15T14:45:52;98697.09;;;17.44;62.34
7888;BME280;3989;48.810;9.208;2024-02-15T14:48:46;98753.84;;;17.74;63.05
7888;BME280;3989;48.810;9.208;2024-02-15T14:51:43;98783.41;;;17.87;64.32
7888;BME280;3989;48.810;9.208;2024-02-15T14:54:45;98719.34;;;17.40;65.17
7888;BME280;3989;48.810;9.208;2024-02-15T14:57:39;98659.00;;;17.16;64.80
7888;BME280;3989;48.810;9.208;2024-02-15T15:00:30;98770.44;;;17.77;65.11
7888;BME280;3989;48.810;9.208;2024-02-15T15:03:14;98662.38;;;17.29;64.33
7888;BME280;3989;48.810;9.208;2024-02-15T15:06:12;98769.38;;;17.97;63.45
7888;BME280;3989;48.810;9.208;2024-02-15T15:09:11;98693.06;;;17.53;63.40
7888;BME280;3989;48.810;9.208;2024-02-15T15:12:08;98686.63;;;17.54;62.54
7888;BME280;3989;48.810;9.208;2024-02-15T15:18:33;98780.88;;;17.92;63.15
7888;BME280;3989;48.810;9.208;2024-02-15T15:21:31;98724.81;;;17.51;63.60
7888;BME280;3989;48.810;9.208;2024-02-15T15:24:22;98701.28;;;17.22;64.27
7888;BME280;3989;48.810;9.208;2024-02-15T15:27:04;98743.03;;;17.38;65.57
7888;BME280;3989;48.810;9.208;2024-02-15T15:29:44;98719.16;;;17.16;66.22
7888;BME280;3989;48.810;9.208;2024-02-15T15:32:38;98692.75;;;16.82;68.75
7888;BME280;3989;48.810;9.208;2024-02-15T15:35:45;98740.25;;;17.01;69.64
7888;BME280;3989;48.810;9.208;2024-02-15T15:38:27;98741.41;;;16.87;72.79
7888;BME280;3989;48.810;9.208;2024-02-15T15:41:28;98769.75;;;16.96;76.20
7888;BME280;3989;48.810;9.208;2024-02-15T15:44:22;98711.22;;;16.47;78.41
7888;BME280;3989;48.810;9.208;2024-02-15T15:47:17;98768.69;;;16.72;78.71
7888;BME280;3989;48.810;9.208;2024-02-15T15:50:19;98703.91;;;16.23;78.92
7888;BME280;3989;48.810;9.208;2024-02-15T15:54:10;98756.19;;;16.47;80.19
7888;BME280;3989;48.810;9.208;2024-02-15T16:00:08;98647.91;;;15.69;83.45
7888;BME280;3989;48.810;9.208;2024-02-15T16:06:38;98744.25;;;15.98;85.90
7888;BME280;3989;48.810;9.208;2024-02-15T16:09:35;98732.53;;;15.80;88.92
7888;BME280;3989;48.810;9.208;2024-02-15T16:16:02;98735.72;;;15.44;94.01
7888;BME280;3989;48.810;9.208;2024-02-15T16:19:10;98650.66;;;14.72;99.29
7888;BME280;3989;48.810;9.208;2024-02-15T16:22:11;98638.66;;;14.48;100.00
7888;BME280;3989;48.810;9.208;2024-02-15T16:25:22;98701.28;;;14.62;100.00
7888;BME280;3989;48.810;9.208;2024-02-15T16:28:18;98737.22;;;14.61;100.00
7888;BME280;3989;48.810;9.208;2024-02-15T16:31:11;98691.91;;;14.25;100.00
7888;BME280;3989;48.810;9.208;2024-02-15T16:34:07;98673.28;;;13.97;100.00
7888;BME280;3989;48.810;9.208;2024-02-15T16:36:57;98715.25;;;14.18;100.00
7888;BME280;3989;48.810;9.208;2024-02-15T16:43:21;98624.16;;;13.30;100.00
7888;BME280;3989;48.810;9.208;2024-02-15T16:46:20;98709.50;;;13.74;100.00
7888;BME280;3989;48.810;9.208;2024-02-15T16:49:21;98711.75;;;13.70;100.00
7888;BME280;3989;48.810;9.208;2024-02-15T16:52:14;98659.44;;;13.33;100.00
7888;BME280;3989;48.810;9.208;2024-02-15T16:55:31;98628.34;;;13.04;100.00
7888;BME280;3989;48.810;9.208;2024-02-15T16:58:34;98721.34;;;13.45;100.00
7888;BME280;3989;48.810;9.208;2024-02-15T17:01:28;98647.41;;;12.88;100.00
7888;BME280;3989;48.810;9.208;2024-02-15T17:04:29;98717.84;;;13.10;100.00
7888;BME280;3989;48.810;9.208;2024-02-15T17:10:25;98631.97;;;12.35;100.00
7888;BME280;3989;48.810;9.208;2024-02-15T17:13:15;98612.13;;;12.23;100.00
7888;BME280;3989;48.810;9.208;2024-02-15T17:16:08;98709.75;;;12.76;100.00
7888;BME280;3989;48.810;9.208;2024-02-15T17:26:33;98718.00;;;12.53;100.00
7888;BME280;3989;48.810;9.208;2024-02-15T17:29:24;98692.38;;;12.23;100.00
7888;BME280;3989;48.810;9.208;2024-02-15T17:32:28;98615.63;;;11.59;100.00
7888;BME280;3989;48.810;9.208;2024-02-15T17:35:19;98694.69;;;12.04;100.00
7888;BME280;3989;48.810;9.208;2024-02-15T17:37:51;98727.16;;;12.23;100.00
7888;BME280;3989;48.810;9.208;2024-02-15T17:40:19;98717.63;;;12.14;100.00
7888;BME280;3989;48.810;9.208;2024-02-15T17:42:48;98648.06;;;11.56;100.00
7888;BME280;3989;48.810;9.208;2024-02-15T17:45:15;98627.56;;;11.64;100.00
7888;BME280;3989;48.810;9.208;2024-02-15T17:47:43;98710.81;;;12.11;100.00
7888;BME280;3989;48.810;9.208;2024-02-15T17:50:13;98554.72;;;11.19;100.00
7888;BME280;3989;48.810;9.208;2024-02-15T17:52:43;98630.50;;;11.69;100.00
7888;BME280;3989;48.810;9.208;2024-02-15T17:55:12;98720.44;;;12.27;100.00
7888;BME280;3989;48.810;9.208;2024-02-15T17:57:40;98539.28;;;11.15;100.00
7888;BME280;3989;48.810;9.208;2024-02-15T18:00:10;98682.38;;;11.89;100.00
7888;BME280;3989;48.810;9.208;2024-02-15T18:02:41;98568.28;;;11.18;100.00
7888;BME280;3989;48.810;9.208;2024-02-15T18:05:13;98637.00;;;11.59;100.00
7888;BME280;3989;48.810;9.208;2024-02-15T18:07:41;98567.44;;;11.17;100.00
7888;BME280;3989;48.810;9.208;2024-02-15T18:10:09;98631.66;;;11.45;100.00
7888;BME280;3989;48.810;9.208;2024-02-15T18:12:37;98657.38;;;11.46;100.00
7888;BME280;3989;48.810;9.208;2024-02-15T18:15:06;98741.00;;;12.05;100.00
7888;BME280;3989;48.810;9.208;2024-02-15T18:17:40;98751.31;;;12.29;100.00
7888;BME280;3989;48.810;9.208;2024-02-15T18:20:11;98750.13;;;12.53;100.00
7888;BME280;3989;48.810;9.208;2024-02-15T20:41:06;98676.13;;;11.17;100.00
7888;BME280;3989;48.810;9.208;2024-02-15T20:43:38;98681.00;;;11.13;100.00
7888;BME280;3989;48.810;9.208;2024-02-15T20:51:24;98664.44;;;11.18;100.00
7888;BME280;3989;48.810;9.208;2024-02-15T20:53:53;98681.25;;;11.18;100.00
7888;BME280;3989;48.810;9.208;2024-02-15T20:56:23;98635.88;;;10.89;100.00
7888;BME280;3989;48.810;9.208;2024-02-15T20:58:52;98669.97;;;11.01;100.00
7888;BME280;3989;48.810;9.208;2024-02-15T21:01:19;98641.84;;;10.76;100.00
7888;BME280;3989;48.810;9.208;2024-02-15T21:03:48;98624.75;;;10.85;100.00
7888;BME280;3989;48.810;9.208;2024-02-15T21:06:18;98577.97;;;10.45;100.00
7888;BME280;3989;48.810;9.208;2024-02-15T21:08:50;98670.59;;;11.03;100.00
7888;BME280;3989;48.810;9.208;2024-02-15T22:13:40;98554.88;;;8.00;100.00
7888;BME280;3989;48.810;9.208;2024-02-15T22:16:08;98499.28;;;7.42;100.00
7888;BME280;3989;48.810;9.208;2024-02-15T22:18:35;98453.66;;;7.22;100.00
7888;BME280;3989;48.810;9.208;2024-02-15T22:21:08;98679.66;;;8.50;100.00
7888;BME280;3989;48.810;9.208;2024-02-15T22:23:39;98660.34;;;8.48;100.00
7888;BME280;3989;48.810;9.208;2024-02-15T22:26:13;98483.84;;;7.37;100.00
7888;BME280;3989;48.810;9.208;2024-02-15T22:28:47;98504.28;;;7.45;100.00
7888;BME280;3989;48.810;9.208;2024-02-15T22:31:15;98425.13;;;6.83;100.00
7888;BME280;3989;48.810;9.208;2024-02-15T22:33:42;98610.84;;;7.74;100.00
7888;BME280;3989;48.810;9.208;2024-02-15T22:36:19;98634.28;;;7.95;100.00
7888;BME280;3989;48.810;9.208;2024-02-15T22:38:46;98645.09;;;8.01;100.00
7888;BME280;3989;48.810;9.208;2024-02-15T22:41:14;98639.59;;;8.03;100.00
7888;BME280;3989;48.810;9.208;2024-02-15T22:43:41;98654.53;;;8.04;100.00
7888;BME280;3989;48.810;9.208;2024-02-15T22:46:12;98441.00;;;6.75;100.00
7888;BME280;3989;48.810;9.208;2024-02-15T22:48:41;98419.28;;;6.64;100.00
7888;BME280;3989;48.810;9.208;2024-02-15T22:51:12;98642.91;;;7.97;100.00
7888;BME280;3989;48.810;9.208;2024-02-15T22:53:43;98632.63;;;7.93;100.00
7888;BME280;3989;48.810;9.208;2024-02-15T22:56:12;98450.63;;;6.68;100.00
7888;BME280;3989;48.810;9.208;2024-02-15T22:58:40;98534.28;;;7.29;100.00
7888;BME280;3989;48.810;9.208;2024-02-15T23:01:07;98629.44;;;7.82;100.00
